createdAt,value
2022-08-18T00:00:54.491Z,72.07
2022-08-18T00:03:10.544Z,71.89
2022-08-18T00:05:22.887Z,71.85
2022-08-18T00:07:29.604Z,71.63
2022-08-18T00:09:32.758Z,71.71
2022-08-18T00:11:52.920Z,71.97
2022-08-18T00:13:54.798Z,72.07
2022-08-18T00:15:56.507Z,72.60
2022-08-18T00:17:58.362Z,72.58
2022-08-18T00:20:00.312Z,72.26
2022-08-18T00:22:02.021Z,72.10
2022-08-18T00:24:04.614Z,72.30
2022-08-18T00:26:11.965Z,72.29
2022-08-18T00:28:14.277Z,72.12
2022-08-18T00:30:20.097Z,72.18
2022-08-18T00:32:33.879Z,72.48
2022-08-18T00:34:36.030Z,72.47
2022-08-18T00:36:40.094Z,72.33
2022-08-18T00:38:42.088Z,72.21
2022-08-18T00:40:50.029Z,72.37
2022-08-18T00:42:56.308Z,72.17
2022-08-18T00:45:02.247Z,71.76
2022-08-18T00:47:04.200Z,71.93
2022-08-18T00:49:06.312Z,72.14
2022-08-18T00:51:13.323Z,72.38
2022-08-18T00:53:27.741Z,72.05
2022-08-18T00:55:32.684Z,72.28
2022-08-18T00:57:35.949Z,72.71
2022-08-18T00:59:44.095Z,72.70
2022-08-18T01:01:52.157Z,72.12
2022-08-18T01:04:00.428Z,72.69
2022-08-18T01:06:06.812Z,72.56
2022-08-18T01:08:14.551Z,72.48
2022-08-18T01:10:21.070Z,72.57
2022-08-18T01:12:44.207Z,72.42
2022-08-18T01:14:46.615Z,72.51
2022-08-18T01:17:09.368Z,72.31
2022-08-18T01:19:30.074Z,71.98
2022-08-18T01:22:00.104Z,72.46
2022-08-18T01:24:05.922Z,72.09
2022-08-18T01:26:09.559Z,71.99
2022-08-18T01:28:20.193Z,72.03
2022-08-18T01:30:25.702Z,72.17
2022-08-18T01:32:28.399Z,72.40
2022-08-18T01:34:30.518Z,71.90
2022-08-18T01:36:37.594Z,72.19
2022-08-18T01:38:40.909Z,72.35
2022-08-18T01:41:23.806Z,72.38
2022-08-18T01:43:05.665Z,72.29
2022-08-18T01:45:08.626Z,72.66
2022-08-18T01:47:12.314Z,72.10
2022-08-18T01:49:14.765Z,72.42
2022-08-18T01:51:18.861Z,72.14
2022-08-18T01:53:20.807Z,72.58
2022-08-18T01:55:28.496Z,72.54
2022-08-18T01:57:30.652Z,72.63
2022-08-18T01:59:32.888Z,72.56
2022-08-18T02:01:45.249Z,72.38
2022-08-18T02:04:23.386Z,72.32
2022-08-18T02:06:33.514Z,72.50
2022-08-18T02:08:38.894Z,72.53
2022-08-18T02:10:46.925Z,72.41
2022-08-18T02:12:48.870Z,72.03
2022-08-18T02:14:52.070Z,72.17
2022-08-18T02:16:59.441Z,72.19
2022-08-18T02:19:04.403Z,72.16
2022-08-18T02:21:18.897Z,71.92
2022-08-18T02:23:21.685Z,72.02
2022-08-18T02:25:23.573Z,72.14
2022-08-18T02:27:27.244Z,72.03
2022-08-18T02:29:29.453Z,71.83
2022-08-18T02:31:31.614Z,72.07
2022-08-18T02:33:34.360Z,72.56
2022-08-18T02:35:37.421Z,72.22
2022-08-18T02:37:50.481Z,72.17
2022-08-18T02:39:56.724Z,72.35
2022-08-18T02:41:58.673Z,72.14
2022-08-18T02:44:00.713Z,72.20
2022-08-18T02:46:02.957Z,72.15
2022-08-18T02:48:05.921Z,71.94
2022-08-18T02:50:08.184Z,72.27
2022-08-18T02:52:12.890Z,72.07
2022-08-18T02:54:14.794Z,72.19
2022-08-18T02:56:39.918Z,72.22
2022-08-18T02:58:43.666Z,72.32
2022-08-18T03:00:46.936Z,72.20
2022-08-18T03:02:51.740Z,72.02
2022-08-18T03:04:53.764Z,71.77
2022-08-18T03:06:56.455Z,72.25
2022-08-18T03:08:58.477Z,71.77
2022-08-18T03:11:00.479Z,71.92
2022-08-18T03:13:02.889Z,71.69
2022-08-18T03:15:05.213Z,71.66
2022-08-18T03:17:09.305Z,71.57
2022-08-18T03:19:13.023Z,72.05
2022-08-18T03:21:18.630Z,72.00
2022-08-18T03:23:20.628Z,72.05
2022-08-18T03:25:32.201Z,71.82
2022-08-18T03:27:34.066Z,72.01
2022-08-18T03:29:36.982Z,71.97
2022-08-18T03:31:39.310Z,71.85
2022-08-18T03:33:45.604Z,71.28
2022-08-18T03:35:47.693Z,71.37
2022-08-18T03:37:51.009Z,71.47
2022-08-18T03:39:53.235Z,71.38
2022-08-18T03:41:58.508Z,71.06
2022-08-18T03:44:03.118Z,71.36
2022-08-18T03:46:07.383Z,71.76
2022-08-18T03:48:10.409Z,71.78
2022-08-18T03:50:14.109Z,71.34
2022-08-18T03:52:16.602Z,71.43
2022-08-18T03:54:18.614Z,71.35
2022-08-18T03:56:24.752Z,71.61
2022-08-18T03:58:34.300Z,71.53
2022-08-18T04:00:39.233Z,71.28
2022-08-18T04:02:41.558Z,71.15
2022-08-18T04:04:43.513Z,71.47
2022-08-18T04:06:54.318Z,71.48
2022-08-18T04:08:58.639Z,71.56
2022-08-18T04:11:00.700Z,71.61
2022-08-18T04:13:05.629Z,71.41
2022-08-18T04:15:08.117Z,71.35
2022-08-18T04:17:10.694Z,71.57
2022-08-18T04:19:14.497Z,71.77
2022-08-18T04:21:31.676Z,71.52
2022-08-18T04:23:44.155Z,71.82
2022-08-18T04:25:46.637Z,71.72
2022-08-18T04:27:48.636Z,71.62
2022-08-18T04:29:51.263Z,71.14
2022-08-18T04:31:53.246Z,71.48
2022-08-18T04:33:56.680Z,71.93
2022-08-18T04:35:58.707Z,71.68
2022-08-18T04:38:00.823Z,71.77
2022-08-18T04:40:03.032Z,71.94
2022-08-18T04:42:06.152Z,71.47
2022-08-18T04:44:10.317Z,71.62
2022-08-18T04:46:12.485Z,71.22
2022-08-18T04:48:16.387Z,71.40
2022-08-18T04:50:18.442Z,71.24
2022-08-18T04:52:41.794Z,71.30
2022-08-18T04:54:43.961Z,71.70
2022-08-18T04:56:45.861Z,71.67
2022-08-18T04:58:52.649Z,71.29
2022-08-18T05:01:00.511Z,71.07
2022-08-18T05:03:02.524Z,71.13
2022-08-18T05:05:05.490Z,70.93
2022-08-18T05:07:12.303Z,71.51
2022-08-18T05:09:16.874Z,71.56
2022-08-18T05:11:29.682Z,71.63
2022-08-18T05:13:31.604Z,71.48
2022-08-18T05:15:52.691Z,71.28
2022-08-18T05:17:56.748Z,71.70
2022-08-18T05:20:01.919Z,71.43
2022-08-18T05:22:04.651Z,71.48
2022-08-18T05:24:10.173Z,71.40
2022-08-18T05:26:16.834Z,71.01
2022-08-18T05:28:23.537Z,71.04
2022-08-18T05:30:25.820Z,71.30
2022-08-18T05:32:46.992Z,71.22
2022-08-18T05:34:51.202Z,71.17
2022-08-18T05:37:07.161Z,70.84
2022-08-18T05:39:36.575Z,71.12
2022-08-18T05:41:42.118Z,71.18
2022-08-18T05:43:51.293Z,71.10
2022-08-18T05:45:55.354Z,71.15
2022-08-18T05:48:00.567Z,71.14
2022-08-18T05:50:08.817Z,71.10
2022-08-18T05:52:18.933Z,70.99
2022-08-18T05:54:41.168Z,71.12
2022-08-18T05:56:48.062Z,71.07
2022-08-18T05:58:55.843Z,71.18
2022-08-18T06:01:03.288Z,71.12
2022-08-18T06:03:16.215Z,71.13
2022-08-18T06:05:38.607Z,71.28
2022-08-18T06:08:03.371Z,71.40
2022-08-18T06:10:06.750Z,70.78
2022-08-18T06:12:37.716Z,70.46
2022-08-18T06:14:41.434Z,70.12
2022-08-18T06:17:17.790Z,70.10
2022-08-18T06:19:49.544Z,70.31
2022-08-18T06:22:07.664Z,70.34
2022-08-18T06:24:28.175Z,70.36
2022-08-18T06:26:49.029Z,70.81
2022-08-18T06:28:53.755Z,70.59
2022-08-18T06:31:23.720Z,70.55
2022-08-18T06:33:41.193Z,70.91
2022-08-18T06:35:47.453Z,70.75
2022-08-18T06:38:33.393Z,70.92
2022-08-18T06:40:35.472Z,70.97
2022-08-18T06:42:40.379Z,70.35
2022-08-18T06:44:53.045Z,69.63
2022-08-18T06:46:57.586Z,69.82
2022-08-18T06:49:08.580Z,69.72
2022-08-18T06:51:14.973Z,69.93
2022-08-18T06:53:27.013Z,70.26
2022-08-18T06:55:50.535Z,70.49
2022-08-18T06:58:03.512Z,70.32
2022-08-18T07:00:21.552Z,69.87
2022-08-18T07:02:31.503Z,69.06
2022-08-18T07:04:39.384Z,69.06
2022-08-18T07:06:41.506Z,68.51
2022-08-18T07:08:45.414Z,68.67
2022-08-18T07:10:50.914Z,68.87
2022-08-18T07:12:52.619Z,68.50
2022-08-18T07:15:03.470Z,68.38
2022-08-18T07:17:10.889Z,68.30
2022-08-18T07:19:16.865Z,68.50
2022-08-18T07:21:34.277Z,68.41
2022-08-18T07:23:39.376Z,67.87
2022-08-18T07:25:46.540Z,67.67
2022-08-18T07:27:50.736Z,67.45
2022-08-18T07:30:05.974Z,67.21
2022-08-18T07:32:21.561Z,66.82
2022-08-18T07:34:37.244Z,67.25
2022-08-18T07:36:47.571Z,67.31
2022-08-18T07:38:54.773Z,67.28
2022-08-18T07:41:09.143Z,67.36
2022-08-18T07:43:32.840Z,67.40
2022-08-18T07:45:45.839Z,67.83
2022-08-18T07:48:38.046Z,67.73
2022-08-18T07:51:17.275Z,67.46
2022-08-18T07:54:00.875Z,67.63
2022-08-18T07:56:07.367Z,67.45
2022-08-18T07:58:34.682Z,67.58
2022-08-18T08:00:59.586Z,67.40
2022-08-18T08:03:39.019Z,67.42
2022-08-18T08:05:49.399Z,67.44
2022-08-18T08:07:53.882Z,67.05
2022-08-18T08:10:19.043Z,67.34
2022-08-18T08:12:32.972Z,67.01
2022-08-18T08:15:05.239Z,66.58
2022-08-18T08:17:26.832Z,66.87
2022-08-18T08:20:00.424Z,67.04
2022-08-18T08:22:05.887Z,66.93
2022-08-18T08:24:21.132Z,66.54
2022-08-18T08:26:48.859Z,66.25
2022-08-18T08:29:20.787Z,66.48
2022-08-18T08:31:55.101Z,66.38
2022-08-18T08:34:13.331Z,66.28
2022-08-18T08:36:23.366Z,66.13
2022-08-18T08:38:46.635Z,65.99
2022-08-18T08:40:57.881Z,66.50
2022-08-18T08:43:18.318Z,66.40
2022-08-18T08:45:32.490Z,66.13
2022-08-18T08:47:42.911Z,65.43
2022-08-18T08:50:00.914Z,65.59
2022-08-18T08:52:40.400Z,65.39
2022-08-18T08:54:53.827Z,64.91
2022-08-18T08:56:59.988Z,64.58
2022-08-18T08:59:10.182Z,64.31
2022-08-18T09:01:55.050Z,64.18
2022-08-18T09:04:16.691Z,63.59
2022-08-18T09:06:24.416Z,62.94
2022-08-18T09:09:08.487Z,63.35
2022-08-18T09:11:22.120Z,63.46
2022-08-18T09:14:01.590Z,63.20
2022-08-18T09:16:28.182Z,62.90
2022-08-18T09:18:51.501Z,62.71
2022-08-18T09:21:18.636Z,63.35
2022-08-18T09:23:25.325Z,61.20
2022-08-18T09:25:42.232Z,60.23
2022-08-18T09:28:09.934Z,60.69
2022-08-18T09:30:29.805Z,60.60
2022-08-18T09:33:18.467Z,59.81
2022-08-18T09:35:54.815Z,59.54
2022-08-18T09:38:32.211Z,59.90
2022-08-18T09:41:02.307Z,59.85
2022-08-18T09:43:25.974Z,59.85
2022-08-18T09:47:53.132Z,59.39
2022-08-18T09:50:27.594Z,59.40
2022-08-18T09:52:37.529Z,59.73
2022-08-18T09:54:53.420Z,58.51
2022-08-18T09:57:06.243Z,57.58
2022-08-18T09:59:10.899Z,57.33
2022-08-18T10:01:36.742Z,56.44
2022-08-18T10:03:38.584Z,56.50
2022-08-18T10:05:41.536Z,56.03
2022-08-18T10:07:50.108Z,56.35
2022-08-18T10:11:02.165Z,55.38
2022-08-18T10:12:49.300Z,54.72
2022-08-18T10:15:33.388Z,55.03
2022-08-18T10:18:08.866Z,55.18
2022-08-18T10:20:39.251Z,53.82
2022-08-18T10:22:47.958Z,52.91
2022-08-18T10:24:56.048Z,52.00
2022-08-18T10:26:58.788Z,52.96
2022-08-18T10:29:03.702Z,52.07
2022-08-18T10:31:10.219Z,51.61
2022-08-18T10:33:18.470Z,52.29
2022-08-18T10:35:35.932Z,52.06
2022-08-18T10:37:46.392Z,52.24
2022-08-18T10:39:53.622Z,51.83
2022-08-18T10:42:12.327Z,51.44
2022-08-18T10:44:28.826Z,51.80
2022-08-18T10:46:42.597Z,51.54
2022-08-18T10:49:13.417Z,51.82
2022-08-18T10:51:37.789Z,52.83
2022-08-18T10:54:04.761Z,53.12
2022-08-18T10:56:26.766Z,52.84
2022-08-18T10:58:40.748Z,51.66
2022-08-18T11:01:12.109Z,51.41
2022-08-18T11:03:51.343Z,48.98
2022-08-18T11:06:06.727Z,48.98
2022-08-18T11:08:31.781Z,48.78
2022-08-18T11:11:27.778Z,48.68
2022-08-18T11:13:16.387Z,48.95
2022-08-18T11:15:38.530Z,49.13
2022-08-18T11:18:04.550Z,49.13
2022-08-18T11:20:09.731Z,49.25
2022-08-18T11:22:35.660Z,49.00
2022-08-18T11:24:45.038Z,48.02
2022-08-18T11:26:53.527Z,47.79
2022-08-18T11:28:55.503Z,47.95
2022-08-18T11:30:58.304Z,47.28
2022-08-18T11:33:02.656Z,46.46
2022-08-18T11:35:12.899Z,45.24
2022-08-18T11:37:51.397Z,45.65
2022-08-18T11:39:59.039Z,45.69
2022-08-18T11:42:01.160Z,44.70
2022-08-18T11:44:05.691Z,44.25
2022-08-18T11:46:29.332Z,44.23
2022-08-18T11:48:52.098Z,44.12
2022-08-18T11:50:55.802Z,44.10
2022-08-18T11:53:18.943Z,44.53
2022-08-18T11:55:36.061Z,44.23
2022-08-18T11:57:56.177Z,44.71
2022-08-18T12:00:44.024Z,44.14
2022-08-18T12:02:46.115Z,44.77
2022-08-18T12:04:53.363Z,44.94
2022-08-18T12:07:08.370Z,44.57
2022-08-18T12:09:54.185Z,44.43
2022-08-18T12:11:55.933Z,43.89
2022-08-18T12:16:41.959Z,43.36
2022-08-18T12:18:48.420Z,43.26
2022-08-18T12:20:51.410Z,43.26
2022-08-18T12:22:57.240Z,42.51
2022-08-18T12:24:59.240Z,42.29
2022-08-18T12:27:01.129Z,41.85
2022-08-18T12:29:03.149Z,41.50
2022-08-18T12:31:14.885Z,41.97
2022-08-18T12:35:47.968Z,40.93
2022-08-18T12:38:13.395Z,41.37
2022-08-18T12:40:13.099Z,42.16
2022-08-18T12:42:15.254Z,41.45
2022-08-18T12:44:20.152Z,41.66
2022-08-18T12:46:22.516Z,41.27
2022-08-18T12:48:34.578Z,41.82
2022-08-18T12:50:50.087Z,40.90
2022-08-18T12:52:56.644Z,40.52
2022-08-18T12:54:59.219Z,40.28
2022-08-18T12:57:01.422Z,40.36
2022-08-18T12:59:06.034Z,39.69
2022-08-18T13:01:08.045Z,39.37
2022-08-18T13:03:10.131Z,40.13
2022-08-18T13:05:12.546Z,39.68
2022-08-18T13:07:16.105Z,39.00
2022-08-18T13:09:34.298Z,39.05
2022-08-18T13:11:44.056Z,39.44
2022-08-18T13:13:46.546Z,38.87
2022-08-18T13:15:58.329Z,38.24
2022-08-18T13:18:02.890Z,38.25
2022-08-18T13:20:11.312Z,37.38
2022-08-18T13:22:15.831Z,37.29
2022-08-18T13:24:22.168Z,38.05
2022-08-18T13:26:36.604Z,39.26
2022-08-18T13:28:51.579Z,39.91
2022-08-18T13:30:59.052Z,40.01
2022-08-18T13:33:05.474Z,39.97
2022-08-18T13:35:24.250Z,40.06
2022-08-18T13:37:28.669Z,39.62
2022-08-18T13:39:34.469Z,39.72
2022-08-18T13:41:36.591Z,40.01
2022-08-18T13:43:44.050Z,38.99
2022-08-18T13:45:52.970Z,38.96
2022-08-18T13:47:58.410Z,38.06
2022-08-18T13:50:05.194Z,37.52
2022-08-18T13:52:33.105Z,37.82
2022-08-18T13:54:38.852Z,37.39
2022-08-18T13:56:41.331Z,37.58
2022-08-18T13:58:53.721Z,37.65
2022-08-18T14:01:23.184Z,37.27
2022-08-18T14:03:42.661Z,37.66
2022-08-18T14:05:51.307Z,37.98
2022-08-18T14:07:54.850Z,37.60
2022-08-18T14:10:04.470Z,37.09
2022-08-18T14:12:23.252Z,37.07
2022-08-18T14:14:26.367Z,36.70
2022-08-18T14:16:30.837Z,36.11
2022-08-18T14:18:33.103Z,35.71
2022-08-18T14:20:53.870Z,36.09
2022-08-18T14:23:21.937Z,36.06
2022-08-18T14:25:44.708Z,35.29
2022-08-18T14:27:56.152Z,35.07
2022-08-18T14:29:59.091Z,34.82
2022-08-18T14:32:02.093Z,35.01
2022-08-18T14:34:04.687Z,34.55
2022-08-18T14:36:09.840Z,34.44
2022-08-18T14:38:11.855Z,35.58
2022-08-18T14:40:13.665Z,35.79
2022-08-18T14:42:16.684Z,36.74
2022-08-18T14:44:23.952Z,36.05
2022-08-18T14:46:30.460Z,35.79
2022-08-18T14:48:38.737Z,34.97
2022-08-18T14:50:49.362Z,34.90
2022-08-18T14:52:52.036Z,35.11
2022-08-18T14:54:55.484Z,34.64
2022-08-18T14:56:58.830Z,35.24
2022-08-18T14:59:00.959Z,35.70
2022-08-18T15:01:08.356Z,35.33
2022-08-18T15:03:12.287Z,35.47
2022-08-18T15:05:19.634Z,35.72
2022-08-18T15:07:26.714Z,35.91
2022-08-18T15:09:30.377Z,36.07
2022-08-18T15:11:33.740Z,35.44
2022-08-18T15:13:36.711Z,35.30
2022-08-18T15:15:42.339Z,35.04
2022-08-18T15:17:53.358Z,34.97
2022-08-18T15:20:00.347Z,35.08
2022-08-18T15:22:21.346Z,35.11
2022-08-18T15:24:42.597Z,34.21
2022-08-18T15:26:46.065Z,34.37
2022-08-18T15:28:53.514Z,33.48
2022-08-18T15:33:18.562Z,33.93
2022-08-18T15:35:26.320Z,33.63
2022-08-18T15:37:29.430Z,34.84
2022-08-18T15:39:33.823Z,33.77
2022-08-18T15:41:48.764Z,34.03
2022-08-18T15:43:51.030Z,34.17
2022-08-18T15:45:58.320Z,34.29
2022-08-18T15:48:00.379Z,34.87
2022-08-18T15:50:06.700Z,35.75
2022-08-18T15:52:26.013Z,36.18
2022-08-18T15:54:28.237Z,36.24
2022-08-18T15:56:34.359Z,36.32
2022-08-18T15:58:36.468Z,37.24
2022-08-18T16:00:45.368Z,37.62
2022-08-18T16:02:59.274Z,37.91
2022-08-18T16:05:08.428Z,38.46
2022-08-18T16:07:12.168Z,38.01
2022-08-18T16:09:14.661Z,38.04
2022-08-18T16:11:28.977Z,38.21
2022-08-18T16:13:31.394Z,38.21
2022-08-18T16:15:41.096Z,38.21
2022-08-18T16:17:43.237Z,38.54
2022-08-18T16:19:49.998Z,39.13
2022-08-18T16:21:52.531Z,39.02
2022-08-18T16:23:55.738Z,38.87
2022-08-18T16:26:02.498Z,39.46
2022-08-18T16:28:06.298Z,39.07
2022-08-18T16:30:11.278Z,39.81
2022-08-18T16:32:16.376Z,39.98
2022-08-18T16:34:18.504Z,40.12
2022-08-18T16:36:21.574Z,40.16
2022-08-18T16:38:36.574Z,40.20
2022-08-18T16:40:40.491Z,40.03
2022-08-18T16:42:42.454Z,39.96
2022-08-18T16:44:45.274Z,39.59
2022-08-18T16:46:47.153Z,39.62
2022-08-18T16:48:49.351Z,39.10
2022-08-18T16:50:51.510Z,38.88
2022-08-18T16:52:53.497Z,39.20
2022-08-18T16:54:57.503Z,39.03
2022-08-18T16:57:00.158Z,39.44
2022-08-18T16:59:20.528Z,39.39
2022-08-18T17:01:48.522Z,39.87
2022-08-18T17:04:13.408Z,39.19
2022-08-18T17:06:18.734Z,39.28
2022-08-18T17:08:36.937Z,38.83
2022-08-18T17:10:40.171Z,39.03
2022-08-18T17:12:42.090Z,38.98
2022-08-18T17:14:43.834Z,38.87
2022-08-18T17:16:46.437Z,38.97
2022-08-18T17:18:48.906Z,39.14
2022-08-18T17:20:51.733Z,38.82
2022-08-18T17:22:53.816Z,38.86
2022-08-18T17:25:01.380Z,38.74
2022-08-18T17:27:25.980Z,38.52
2022-08-18T17:29:46.006Z,38.62
2022-08-18T17:31:56.556Z,38.51
2022-08-18T17:34:04.518Z,38.35
2022-08-18T17:36:11.798Z,38.21
2022-08-18T17:38:34.246Z,38.64
2022-08-18T17:40:42.813Z,38.38
2022-08-18T17:42:44.681Z,38.45
2022-08-18T17:44:56.520Z,38.60
2022-08-18T17:47:00.726Z,38.67
2022-08-18T17:49:45.563Z,38.67
2022-08-18T17:51:52.553Z,38.73
2022-08-18T17:54:01.363Z,38.40
2022-08-18T17:56:12.568Z,38.69
2022-08-18T17:58:29.080Z,38.48
2022-08-18T18:00:33.908Z,38.36
2022-08-18T18:02:35.913Z,38.81
2022-08-18T18:04:40.392Z,38.55
2022-08-18T18:06:43.990Z,38.53
2022-08-18T18:09:04.053Z,38.52
2022-08-18T18:11:11.647Z,38.64
2022-08-18T18:13:24.563Z,38.67
2022-08-18T18:15:32.486Z,38.72
2022-08-18T18:17:39.471Z,38.87
2022-08-18T18:19:43.364Z,39.60
2022-08-18T18:22:00.522Z,39.19
2022-08-18T18:24:06.437Z,39.88
2022-08-18T18:26:22.948Z,40.00
2022-08-18T18:28:31.963Z,40.87
2022-08-18T18:30:33.785Z,41.48
2022-08-18T18:32:59.204Z,42.13
2022-08-18T18:35:21.057Z,42.33
2022-08-18T18:37:28.790Z,42.80
2022-08-18T18:39:35.709Z,43.31
2022-08-18T18:41:40.111Z,43.22
2022-08-18T18:43:46.921Z,43.26
2022-08-18T18:46:19.479Z,43.56
2022-08-18T18:48:51.116Z,43.65
2022-08-18T18:51:12.320Z,43.59
2022-08-18T18:53:22.237Z,43.64
2022-08-18T18:55:27.856Z,44.00
2022-08-18T18:57:41.713Z,44.20
2022-08-18T19:00:15.511Z,43.98
2022-08-18T19:02:58.808Z,44.25
2022-08-18T19:05:07.943Z,44.48
2022-08-18T19:07:24.274Z,44.69
2022-08-18T19:09:43.173Z,44.70
2022-08-18T19:12:03.803Z,45.00
2022-08-18T19:14:15.022Z,45.15
2022-08-18T19:16:23.646Z,45.18
2022-08-18T19:18:59.759Z,44.95
2022-08-18T19:22:04.682Z,45.15
2022-08-18T19:23:46.453Z,45.41
2022-08-18T19:25:53.547Z,45.56
2022-08-18T19:28:05.671Z,46.70
2022-08-18T19:30:13.143Z,47.76
2022-08-18T19:32:20.721Z,48.33
2022-08-18T19:34:31.393Z,48.21
2022-08-18T19:36:59.073Z,48.55
2022-08-18T19:39:13.426Z,48.76
2022-08-18T19:41:20.125Z,49.04
2022-08-18T19:43:41.201Z,49.33
2022-08-18T19:45:53.415Z,49.51
2022-08-18T19:48:01.181Z,49.59
2022-08-18T19:50:21.985Z,49.43
2022-08-18T19:52:51.311Z,49.67
2022-08-18T19:55:01.306Z,49.73
2022-08-18T19:57:03.782Z,49.77
2022-08-18T19:59:23.070Z,49.73
2022-08-18T20:01:50.710Z,50.08
2022-08-18T20:04:10.776Z,50.31
2022-08-18T20:06:51.625Z,50.57
2022-08-18T20:08:59.965Z,50.48
2022-08-18T20:11:17.375Z,51.06
2022-08-18T20:13:37.179Z,50.83
2022-08-18T20:16:10.892Z,51.12
2022-08-18T20:18:37.592Z,51.19
2022-08-18T20:20:39.822Z,51.33
2022-08-18T20:22:48.185Z,51.61
2022-08-18T20:25:06.099Z,51.89
2022-08-18T20:27:21.762Z,51.86
2022-08-18T20:29:48.644Z,52.25
2022-08-18T20:32:00.110Z,52.19
2022-08-18T20:34:14.294Z,52.41
2022-08-18T20:36:30.563Z,52.44
2022-08-18T20:38:41.983Z,52.53
2022-08-18T20:40:49.860Z,52.70
2022-08-18T20:42:57.459Z,52.86
2022-08-18T20:45:21.630Z,52.99
2022-08-18T20:48:08.108Z,52.92
2022-08-18T20:50:38.761Z,53.13
2022-08-18T20:52:46.336Z,53.26
2022-08-18T20:55:11.595Z,53.12
2022-08-18T20:57:15.013Z,53.30
2022-08-18T20:59:21.093Z,53.44
2022-08-18T21:01:27.255Z,53.50
2022-08-18T21:03:42.310Z,53.44
2022-08-18T21:05:46.117Z,53.87
2022-08-18T21:08:06.042Z,54.22
2022-08-18T21:10:31.191Z,54.42
2022-08-18T21:12:35.684Z,54.42
2022-08-18T21:14:37.616Z,54.54
2022-08-18T21:16:45.345Z,54.57
2022-08-18T21:18:59.038Z,54.66
2022-08-18T21:21:02.970Z,54.67
2022-08-18T21:23:11.839Z,54.73
2022-08-18T21:25:15.728Z,55.01
2022-08-18T21:27:35.489Z,54.83
2022-08-18T21:29:47.107Z,54.96
2022-08-18T21:31:50.856Z,55.22
2022-08-18T21:33:56.152Z,55.33
2022-08-18T21:35:58.490Z,55.36
2022-08-18T21:38:02.555Z,55.24
2022-08-18T21:40:05.675Z,55.36
2022-08-18T21:42:08.379Z,55.34
2022-08-18T21:44:28.096Z,55.02
2022-08-18T21:46:30.894Z,55.33
2022-08-18T21:48:34.315Z,55.32
2022-08-18T21:50:38.796Z,55.50
2022-08-18T21:52:56.545Z,55.66
2022-08-18T21:55:05.138Z,55.62
2022-08-18T21:57:21.970Z,55.77
2022-08-18T21:59:23.675Z,55.97
2022-08-18T22:01:30.220Z,55.97
2022-08-18T22:03:33.107Z,55.92
2022-08-18T22:05:57.985Z,56.17
2022-08-18T22:08:00.999Z,56.11
2022-08-18T22:10:40.225Z,56.21
2022-08-18T22:13:14.579Z,56.48
2022-08-18T22:15:20.823Z,56.62
2022-08-18T22:17:25.297Z,56.93
2022-08-18T22:19:27.142Z,57.29
2022-08-18T22:21:41.158Z,57.17
2022-08-18T22:24:05.207Z,57.48
2022-08-18T22:26:25.611Z,57.63
2022-08-18T22:28:31.738Z,57.96
2022-08-18T22:30:33.446Z,58.57
2022-08-18T22:32:38.603Z,58.80
2022-08-18T22:34:40.804Z,58.60
2022-08-18T22:36:47.230Z,59.06
2022-08-18T22:38:49.584Z,58.99
2022-08-18T22:40:51.661Z,59.49
2022-08-18T22:42:53.506Z,59.72
2022-08-18T22:44:58.085Z,59.86
2022-08-18T22:47:04.507Z,60.04
2022-08-18T22:49:06.158Z,59.83
2022-08-18T22:51:08.569Z,60.08
2022-08-18T22:53:10.499Z,59.89
2022-08-18T22:55:14.876Z,60.05
2022-08-18T22:57:21.173Z,60.25
2022-08-18T22:59:25.648Z,60.72
2022-08-18T23:01:30.025Z,60.91
2022-08-18T23:03:31.998Z,60.62
2022-08-18T23:05:38.831Z,60.97
2022-08-18T23:07:40.571Z,61.21
2022-08-18T23:09:42.246Z,61.14
2022-08-18T23:11:43.902Z,61.45
2022-08-18T23:13:45.599Z,61.55
2022-08-18T23:15:47.694Z,61.17
2022-08-18T23:17:49.420Z,61.83
2022-08-18T23:19:52.043Z,62.16
2022-08-18T23:21:54.101Z,62.55
2022-08-18T23:23:56.353Z,62.98
2022-08-18T23:25:58.978Z,63.00
2022-08-18T23:28:02.391Z,63.16
2022-08-18T23:30:05.285Z,63.56
2022-08-18T23:32:07.497Z,63.80
2022-08-18T23:34:11.422Z,63.63
2022-08-18T23:36:13.148Z,63.74
2022-08-18T23:38:17.396Z,63.72
2022-08-18T23:40:19.579Z,64.09
2022-08-18T23:42:23.128Z,64.08
2022-08-18T23:44:27.834Z,63.92
2022-08-18T23:46:31.949Z,63.82
2022-08-18T23:48:35.723Z,63.86
2022-08-18T23:50:44.627Z,63.94
2022-08-18T23:52:47.595Z,64.14
2022-08-18T23:54:49.454Z,64.16
2022-08-18T23:56:51.339Z,64.12
2022-08-18T23:58:56.299Z,64.45
